createdAt,value
2022-08-11T00:00:37.075Z,82
2022-08-11T00:01:37.060Z,82.09
2022-08-11T00:02:37.350Z,82.19
2022-08-11T00:03:45.881Z,82.09
2022-08-11T00:04:37.072Z,82.09
2022-08-11T00:05:37.039Z,82
2022-08-11T00:06:37.028Z,82.09
2022-08-11T00:07:37.009Z,82.09
2022-08-11T00:08:36.998Z,82
2022-08-11T00:09:41.736Z,82
2022-08-11T00:10:36.989Z,82.09
2022-08-11T00:11:36.720Z,82.09
2022-08-11T00:12:37.117Z,82.09
2022-08-11T00:13:36.957Z,82.09
2022-08-11T00:14:39.812Z,81.9
2022-08-11T00:15:36.679Z,82.09
2022-08-11T00:16:36.933Z,82.09
2022-08-11T00:17:36.924Z,82.86
2022-08-11T00:18:36.913Z,82.29
2022-08-11T00:20:17.358Z,82.67
2022-08-11T00:20:36.897Z,82.48
2022-08-11T00:22:06.975Z,82.67
2022-08-11T00:22:37.009Z,82.38
2022-08-11T00:23:36.867Z,82
2022-08-11T00:24:56.141Z,82.67
2022-08-11T00:25:36.595Z,82.76
2022-08-11T00:26:36.588Z,82.57
2022-08-11T00:27:36.577Z,82.57
2022-08-11T00:28:36.571Z,82.57
2022-08-11T00:29:51.600Z,82.57
2022-08-11T00:30:36.810Z,82.38
2022-08-11T00:31:36.542Z,82.48
2022-08-11T00:32:36.729Z,82.48
2022-08-11T00:33:46.928Z,82.61
2022-08-11T00:34:36.518Z,82.48
2022-08-11T00:35:58.673Z,82.48
2022-08-11T00:36:36.755Z,82.48
2022-08-11T00:37:36.746Z,82.48
2022-08-11T00:38:36.743Z,82.48
2022-08-11T00:39:36.630Z,82.76
2022-08-11T00:40:36.721Z,82.29
2022-08-11T00:41:36.709Z,82.95
2022-08-11T00:42:36.476Z,83
2022-08-11T00:43:36.698Z,82.86
2022-08-11T00:44:36.429Z,82.32
2022-08-11T00:45:36.675Z,82.95
2022-08-11T00:46:36.669Z,82.48
2022-08-11T00:47:36.661Z,82.61
2022-08-11T00:48:36.398Z,82.57
2022-08-11T00:49:36.646Z,83.34
2022-08-11T00:50:36.634Z,82.81
2022-08-11T00:52:07.743Z,82.67
2022-08-11T00:52:36.654Z,82.61
2022-08-11T00:53:36.609Z,82.57
2022-08-11T00:54:36.601Z,82.81
2022-08-11T00:55:36.593Z,82.76
2022-08-11T00:56:36.324Z,82.95
2022-08-11T00:57:40.356Z,82.95
2022-08-11T00:58:37.295Z,82.81
2022-08-11T00:59:38.531Z,82.86
2022-08-11T01:00:36.936Z,83.09
2022-08-11T01:01:36.529Z,82.61
2022-08-11T01:02:36.859Z,82.86
2022-08-11T01:03:36.775Z,82.29
2022-08-11T01:04:36.502Z,82.42
2022-08-11T01:05:36.752Z,82.81
2022-08-11T01:06:37.259Z,82.86
2022-08-11T01:08:05.435Z,82.9
2022-08-11T01:08:36.472Z,82.95
2022-08-11T01:09:36.720Z,82.76
2022-08-11T01:10:36.707Z,82.81
2022-08-11T01:11:36.441Z,82.76
2022-08-11T01:12:36.896Z,83.14
2022-08-11T01:13:36.684Z,83.05
2022-08-11T01:14:37.253Z,83.05
2022-08-11T01:15:36.669Z,83.05
2022-08-11T01:16:36.659Z,83.14
2022-08-11T01:17:36.393Z,83.53
2022-08-11T01:18:36.637Z,83.43
2022-08-11T01:20:49.533Z,83.14
2022-08-11T01:20:59.140Z,83.43
2022-08-11T01:21:58.932Z,83.14
2022-08-11T01:22:59.123Z,83.24
2022-08-11T01:23:59.117Z,83.72
2022-08-11T01:24:58.847Z,83.62
2022-08-11T01:26:00.400Z,83.62
2022-08-11T01:26:59.084Z,83.72
2022-08-11T01:27:59.081Z,83.62
2022-08-11T01:28:59.071Z,83.91
2022-08-11T01:29:59.062Z,84.2
2022-08-11T01:30:59.066Z,83.91
2022-08-11T01:31:59.967Z,84.48
2022-08-11T01:32:58.779Z,84.29
2022-08-11T01:33:58.768Z,84.86
2022-08-11T01:34:59.015Z,84.77
2022-08-11T01:35:58.754Z,84.58
2022-08-11T01:36:59.635Z,84.58
2022-08-11T01:37:58.734Z,84.58
2022-08-11T01:38:58.981Z,84.67
2022-08-11T01:39:58.910Z,85.05
2022-08-11T01:40:58.966Z,84.58
2022-08-11T01:41:58.954Z,84.86
2022-08-11T01:42:58.946Z,84.67
2022-08-11T01:43:58.680Z,84.77
2022-08-11T01:44:58.928Z,84.67
2022-08-11T01:45:58.919Z,84.77
2022-08-11T01:46:58.658Z,84.77
2022-08-11T01:47:58.903Z,84.77
2022-08-11T01:48:58.892Z,84.67
2022-08-11T01:50:17.027Z,84.77
2022-08-11T01:51:19.656Z,84.86
2022-08-11T01:52:16.999Z,84.86
2022-08-11T01:53:16.742Z,84.96
2022-08-11T01:54:16.982Z,85.44
2022-08-11T01:55:16.977Z,85.15
2022-08-11T01:56:16.966Z,85.15
2022-08-11T01:57:16.962Z,85.44
2022-08-11T01:58:16.951Z,85.39
2022-08-11T01:59:16.816Z,85.39
2022-08-11T02:00:16.929Z,85.39
2022-08-11T02:01:17.111Z,85.87
2022-08-11T02:02:24.023Z,85.91
2022-08-11T02:03:16.905Z,85.87
2022-08-11T02:04:16.893Z,86.16
2022-08-11T02:05:16.631Z,86.06
2022-08-11T02:06:16.876Z,85.97
2022-08-11T02:07:16.611Z,86.25
2022-08-11T02:08:19.117Z,86.35
2022-08-11T02:09:21.271Z,86.44
2022-08-11T02:10:16.847Z,86.54
2022-08-11T02:11:16.850Z,86.35
2022-08-11T02:12:16.822Z,86.16
2022-08-11T02:13:16.812Z,86.44
2022-08-11T02:14:16.804Z,86.54
2022-08-11T02:15:16.797Z,86.63
2022-08-11T02:16:17.077Z,86.35
2022-08-11T02:17:16.775Z,87.4
2022-08-11T02:18:16.761Z,86.92
2022-08-11T02:19:16.502Z,87.3
2022-08-11T02:20:16.753Z,87.21
2022-08-11T02:21:16.491Z,87.02
2022-08-11T02:22:16.471Z,87.02
2022-08-11T02:24:07.968Z,87.11
2022-08-11T02:24:17.413Z,87.59
2022-08-11T02:25:20.106Z,87.21
2022-08-11T02:26:17.687Z,87.21
2022-08-11T02:27:17.387Z,87.11
2022-08-11T02:28:17.633Z,87.78
2022-08-11T02:29:17.631Z,87.68
2022-08-11T02:30:17.360Z,87.49
2022-08-11T02:32:30.063Z,87.97
2022-08-11T02:32:45.000Z,88.16
2022-08-11T02:33:43.870Z,87.97
2022-08-11T02:34:43.868Z,87.87
2022-08-11T02:35:43.846Z,88.16
2022-08-11T02:36:43.841Z,88.16
2022-08-11T02:37:43.826Z,87.87
2022-08-11T02:38:43.827Z,87.97
2022-08-11T02:39:43.949Z,88.16
2022-08-11T02:40:43.812Z,88.26
2022-08-11T02:41:43.793Z,87.97
2022-08-11T02:42:44.188Z,88.26
2022-08-11T02:43:51.035Z,88.45
2022-08-11T02:44:43.771Z,88.73
2022-08-11T02:45:43.756Z,88.64
2022-08-11T02:46:43.747Z,89.02
2022-08-11T02:47:43.733Z,89.59
2022-08-11T02:48:43.731Z,89.59
2022-08-11T02:49:43.459Z,89.97
2022-08-11T02:50:43.452Z,89.88
2022-08-11T02:51:43.454Z,89.78
2022-08-11T02:52:43.689Z,89.78
2022-08-11T02:53:43.425Z,90.45
2022-08-11T02:54:43.672Z,90.64
2022-08-11T02:55:59.105Z,90.45
2022-08-11T02:56:43.657Z,90.55
2022-08-11T02:57:43.643Z,90.64
2022-08-11T02:58:43.931Z,90.36
2022-08-11T02:59:43.625Z,90.45
2022-08-11T03:00:43.618Z,90.64
2022-08-11T03:01:43.827Z,90.93
2022-08-11T03:02:43.640Z,90.64
2022-08-11T03:03:43.336Z,90.45
2022-08-11T03:04:43.578Z,90.93
2022-08-11T03:05:43.567Z,90.88
2022-08-11T03:06:43.562Z,91.02
2022-08-11T03:07:43.548Z,90.83
2022-08-11T03:08:43.543Z,91.31
2022-08-11T03:09:43.552Z,91.41
2022-08-11T03:10:43.524Z,91.5
2022-08-11T03:11:43.255Z,91.27
2022-08-11T03:12:43.501Z,91.78
2022-08-11T03:13:43.518Z,91.31
2022-08-11T03:14:43.484Z,91.41
2022-08-11T03:15:44.581Z,91.31
2022-08-11T03:16:43.469Z,91.78
2022-08-11T03:17:43.453Z,91.12
2022-08-11T03:18:43.449Z,91.21
2022-08-11T03:19:43.435Z,91.21
2022-08-11T03:20:45.773Z,91.41
2022-08-11T03:22:06.292Z,91.78
2022-08-11T03:22:43.150Z,92.07
2022-08-11T03:23:43.399Z,91.5
2022-08-11T03:24:43.391Z,91.78
2022-08-11T03:25:43.382Z,91.83
2022-08-11T03:26:43.369Z,91.74
2022-08-11T03:27:43.363Z,91.6
2022-08-11T03:28:43.348Z,91.98
2022-08-11T03:29:43.343Z,91.41
2022-08-11T03:30:43.329Z,92.36
2022-08-11T03:31:43.350Z,92.26
2022-08-11T03:49:08.517Z,92.88
2022-08-11T03:50:06.708Z,92.69
2022-08-11T03:51:06.709Z,93.08
2022-08-11T03:52:06.678Z,93.08
2022-08-11T03:53:06.449Z,92.69
2022-08-11T03:54:06.669Z,92.98
2022-08-11T03:55:06.392Z,93.55
2022-08-11T03:56:06.633Z,93.65
2022-08-11T03:57:06.619Z,94.22
2022-08-11T03:58:06.608Z,94.03
2022-08-11T03:59:06.340Z,93.93
2022-08-11T04:00:06.590Z,94.03
2022-08-11T04:01:06.630Z,94.12
2022-08-11T04:02:06.718Z,94.7
2022-08-11T04:03:06.552Z,94.98
2022-08-11T04:04:06.813Z,95.08
2022-08-11T04:05:07.063Z,94.7
2022-08-11T04:06:06.793Z,95.08
2022-08-11T04:07:07.037Z,95.08
2022-08-11T04:08:06.768Z,94.79
2022-08-11T04:09:07.017Z,94.89
2022-08-11T04:10:06.748Z,95.17
2022-08-11T04:11:06.740Z,94.89
2022-08-11T04:12:06.731Z,95.27
2022-08-11T04:13:06.973Z,95.94
2022-08-11T04:14:06.959Z,94.89
2022-08-11T04:15:06.696Z,94.98
2022-08-11T04:16:14.275Z,95.94
2022-08-11T04:17:06.677Z,95.56
2022-08-11T04:18:06.925Z,95.27
2022-08-11T04:19:06.661Z,95.17
2022-08-11T04:20:06.900Z,95.37
2022-08-11T04:21:06.919Z,95.65
2022-08-11T04:22:06.921Z,95.65
2022-08-11T04:23:06.618Z,94.89
2022-08-11T04:24:42.365Z,95.08
2022-08-11T04:26:00.411Z,95.22
2022-08-11T04:26:41.173Z,95.27
2022-08-11T04:27:41.750Z,94.93
2022-08-11T04:28:52.313Z,95.7
2022-08-11T04:30:09.048Z,95.37
2022-08-11T04:30:43.514Z,95.41
2022-08-11T04:31:54.217Z,95.7
2022-08-11T04:32:39.917Z,95.41
2022-08-11T04:33:39.594Z,95.79
2022-08-11T04:34:39.725Z,95.51
2022-08-11T04:35:39.716Z,95.7
2022-08-11T04:36:39.702Z,95.41
2022-08-11T04:37:39.436Z,95.32
2022-08-11T04:38:39.684Z,95.61
2022-08-11T04:39:39.857Z,95.12
2022-08-11T04:40:39.410Z,95.22
2022-08-11T04:41:39.655Z,94.93
2022-08-11T04:42:39.800Z,94.74
2022-08-11T04:44:05.952Z,94.36
2022-08-11T04:44:39.634Z,94.46
2022-08-11T04:45:39.615Z,94.41
2022-08-11T04:46:39.612Z,94.07
2022-08-11T04:48:06.121Z,94.17
2022-08-11T04:48:39.332Z,94.12
2022-08-11T04:49:39.323Z,94.31
2022-08-11T04:50:39.318Z,94.31
2022-08-11T04:51:39.564Z,94.22
2022-08-11T04:52:40.682Z,93.93
2022-08-11T04:53:39.292Z,94.03
2022-08-11T04:54:39.281Z,93.65
2022-08-11T04:55:39.977Z,93.84
2022-08-11T04:56:39.519Z,93.74
2022-08-11T04:57:39.505Z,94.41
2022-08-11T04:58:39.503Z,93.74
2022-08-11T04:59:39.496Z,94.41
2022-08-11T05:00:39.487Z,94.41
2022-08-11T05:01:40.228Z,94.7
2022-08-11T05:02:39.599Z,94.89
2022-08-11T05:03:39.199Z,95.36
2022-08-11T05:04:39.186Z,95.17
2022-08-11T05:05:39.431Z,95.17
2022-08-11T05:06:39.167Z,95.46
2022-08-11T05:07:39.182Z,95.17
2022-08-11T05:08:39.407Z,95.7
2022-08-11T05:09:39.396Z,95.75
2022-08-11T05:10:43.805Z,95.17
2022-08-11T05:11:39.123Z,95.61
2022-08-11T05:12:39.658Z,95.98
2022-08-11T05:13:39.105Z,95.94
2022-08-11T05:14:39.356Z,96.37
2022-08-11T05:15:49.537Z,96.66
2022-08-11T05:16:39.340Z,96.27
2022-08-11T05:17:39.326Z,96.27
2022-08-11T05:18:39.062Z,96.46
2022-08-11T05:19:39.307Z,96.17
2022-08-11T05:20:39.301Z,96.46
2022-08-11T05:21:47.875Z,96.37
2022-08-11T05:22:39.633Z,96.17
2022-08-11T05:23:39.275Z,96.46
2022-08-11T05:24:39.265Z,96.37
2022-08-11T05:26:49.727Z,96.75
2022-08-11T05:26:59.135Z,96.75
2022-08-11T05:27:58.870Z,96.84
2022-08-11T05:28:59.120Z,96.99
2022-08-11T05:29:58.858Z,96.32
2022-08-11T05:30:59.102Z,96.51
2022-08-11T05:31:58.842Z,96.51
2022-08-11T05:33:04.117Z,96.32
2022-08-11T05:33:59.080Z,96.89
2022-08-11T05:34:59.066Z,96.7
2022-08-11T05:36:05.026Z,96.51
2022-08-11T05:37:27.625Z,96.8
2022-08-11T05:37:59.042Z,96.61
2022-08-11T05:38:58.776Z,96.51
2022-08-11T05:39:58.859Z,96.84
2022-08-11T05:41:02.467Z,96.8
2022-08-11T05:41:59.019Z,96.84
2022-08-11T05:42:58.997Z,96.47
2022-08-11T05:44:23.493Z,96.75
2022-08-11T05:44:58.982Z,96.37
2022-08-11T05:46:10.165Z,96.94
2022-08-11T05:46:58.965Z,97.33
2022-08-11T05:47:58.959Z,96.56
2022-08-11T05:48:58.700Z,96.56
2022-08-11T05:50:00.859Z,96.08
2022-08-11T05:50:59.435Z,95.61
2022-08-11T05:52:12.497Z,95.41
2022-08-11T05:52:59.884Z,94.6
2022-08-11T05:53:59.239Z,94.21
2022-08-11T05:55:05.407Z,93.79
2022-08-11T05:56:05.597Z,93.35
2022-08-11T05:56:58.889Z,93.16
2022-08-11T05:57:58.881Z,92.49
2022-08-11T05:58:58.870Z,92.49
2022-08-11T05:59:58.868Z,91.83
2022-08-11T06:00:58.856Z,92.02
2022-08-11T06:01:58.985Z,91.06
2022-08-11T06:02:58.582Z,91.06
2022-08-11T06:04:00.987Z,90.58
2022-08-11T06:04:58.824Z,90.01
2022-08-11T06:05:58.824Z,89.43
2022-08-11T06:06:58.556Z,89.09
2022-08-11T06:07:59.836Z,89.19
2022-08-11T06:08:59.447Z,88.52
2022-08-11T06:09:58.534Z,88.43
2022-08-11T06:10:58.524Z,88.23
2022-08-11T06:11:58.777Z,87.95
2022-08-11T06:12:58.765Z,87.76
2022-08-11T06:13:58.767Z,87.76
2022-08-11T06:14:58.753Z,87.27
2022-08-11T06:15:59.116Z,87.08
2022-08-11T06:16:58.746Z,86.46
2022-08-11T06:17:58.733Z,86.36
2022-08-11T06:18:58.469Z,86.17
2022-08-11T06:20:08.245Z,85.79
2022-08-11T06:20:58.455Z,85.6
2022-08-11T06:21:58.453Z,85.41
2022-08-11T06:22:58.440Z,85.5
2022-08-11T06:23:58.432Z,85.21
2022-08-11T06:24:58.691Z,84.92
2022-08-11T06:25:59.086Z,85.02
2022-08-11T06:27:16.021Z,84.74
2022-08-11T06:27:58.406Z,83.97
2022-08-11T06:29:01.218Z,84.16
2022-08-11T06:29:58.646Z,83.82
2022-08-11T06:30:58.642Z,83.25
2022-08-11T06:31:58.634Z,81.81
2022-08-11T06:32:58.628Z,80.94
2022-08-11T06:33:58.618Z,80.94
2022-08-11T06:34:58.363Z,80.89
2022-08-11T06:35:58.350Z,80.41
2022-08-11T06:36:58.601Z,79.93
2022-08-11T06:38:01.776Z,79.83
2022-08-11T06:38:58.338Z,79.64
2022-08-11T06:39:58.723Z,80.03
2022-08-11T06:40:58.576Z,78.97
2022-08-11T06:41:58.316Z,79.16
2022-08-11T06:42:58.566Z,79.36
2022-08-11T06:44:02.039Z,79.16
2022-08-11T06:44:58.554Z,78.78
2022-08-11T06:45:58.288Z,78.3
2022-08-11T06:46:58.542Z,77.48
2022-08-11T06:47:58.533Z,77
2022-08-11T06:48:58.269Z,77
2022-08-11T06:49:59.160Z,77.09
2022-08-11T06:50:58.254Z,76.42
2022-08-11T06:52:04.442Z,75.5
2022-08-11T06:52:58.507Z,74.1
2022-08-11T06:54:06.858Z,73.72
2022-08-11T06:54:58.235Z,71.77
2022-08-11T06:56:01.436Z,67.13
2022-08-11T06:57:30.145Z,58.85
2022-08-11T06:57:58.472Z,55.49
2022-08-11T06:58:58.473Z,52.43
2022-08-11T06:59:58.462Z,49.41
2022-08-11T07:00:58.206Z,45.71
2022-08-11T07:01:58.327Z,45.37
2022-08-11T07:02:58.457Z,45.12
2022-08-11T07:03:58.462Z,41.86
2022-08-11T07:04:58.199Z,40.52
2022-08-11T07:05:58.189Z,38.13
2022-08-11T07:06:58.449Z,37.85
2022-08-11T07:07:58.441Z,36.9
2022-08-11T07:08:58.183Z,34.5
2022-08-11T07:09:58.182Z,31.77
2022-08-11T07:10:58.442Z,29.64
2022-08-11T07:11:58.183Z,28.96
2022-08-11T07:12:58.443Z,28.96
2022-08-11T07:13:58.433Z,29.25
2022-08-11T07:15:03.113Z,29.85
2022-08-11T07:16:14.872Z,29.47
2022-08-11T07:16:58.434Z,28.32
2022-08-11T07:17:58.184Z,25.01
2022-08-11T07:18:58.442Z,25.98
2022-08-11T07:19:59.313Z,26.46
2022-08-11T07:21:03.889Z,26.18
2022-08-11T07:22:10.411Z,25.9
2022-08-11T07:23:11.848Z,26
2022-08-11T07:24:10.423Z,24.93
2022-08-11T07:25:10.412Z,24.64
2022-08-11T07:26:10.165Z,24.65
2022-08-11T07:27:10.421Z,23.39
2022-08-11T07:28:10.426Z,23.79
2022-08-11T07:29:10.174Z,24.48
2022-08-11T07:30:10.433Z,24.01
2022-08-11T07:31:10.177Z,23.02
2022-08-11T07:32:10.437Z,21.95
2022-08-11T07:33:10.441Z,23.61
2022-08-11T07:34:20.933Z,23.71
2022-08-11T07:35:21.106Z,25.38
2022-08-11T07:36:21.111Z,24.41
2022-08-11T07:37:21.112Z,24.41
2022-08-11T07:38:25.610Z,23.93
2022-08-11T07:39:21.359Z,23.05
2022-08-11T07:40:21.132Z,22.85
2022-08-11T07:41:21.130Z,23.14
2022-08-11T07:42:23.847Z,22.58
2022-08-11T07:43:21.144Z,21.8
2022-08-11T07:44:21.150Z,20.62
2022-08-11T07:45:21.159Z,21.01
2022-08-11T07:46:20.906Z,20.72
2022-08-11T07:47:21.175Z,21.41
2022-08-11T07:48:20.915Z,20.91
2022-08-11T07:49:23.312Z,19.93
2022-08-11T07:50:21.185Z,19.62
2022-08-11T07:51:20.922Z,19.22
2022-08-11T07:52:20.933Z,19.89
2022-08-11T07:53:20.943Z,20.56
2022-08-11T07:54:21.371Z,21.24
2022-08-11T07:55:22.154Z,22.31
2022-08-11T07:56:54.114Z,22.09
2022-08-11T07:58:23.049Z,23.63
2022-08-11T07:59:58.676Z,24.78
2022-08-11T08:00:23.111Z,25.32
2022-08-11T08:01:25.034Z,26.5
2022-08-11T08:02:22.774Z,26.97
2022-08-11T08:03:22.777Z,27.05
2022-08-11T08:04:23.038Z,29.57
2022-08-11T08:05:22.785Z,31.48
2022-08-11T08:06:38.383Z,31.68
2022-08-11T08:07:23.044Z,31.95
2022-08-11T08:08:23.049Z,32.71
2022-08-11T08:09:23.048Z,32.23
2022-08-11T08:10:23.055Z,31.55
2022-08-11T08:11:29.899Z,32.12
2022-08-11T08:12:22.809Z,32.78
2022-08-11T08:13:22.803Z,34.43
2022-08-11T08:14:23.058Z,33.94
2022-08-11T08:15:23.059Z,32.47
2022-08-11T08:16:23.063Z,32.56
2022-08-11T08:17:22.806Z,32.84
2022-08-11T08:18:29.940Z,35.05
2022-08-11T08:19:23.069Z,34.96
2022-08-11T08:20:22.870Z,35.15
2022-08-11T08:21:22.814Z,34.67
2022-08-11T08:22:43.986Z,35.54
2022-08-11T08:23:23.073Z,35.73
2022-08-11T08:24:23.075Z,36.51
2022-08-11T08:25:23.075Z,37.87
2022-08-11T08:26:22.819Z,37.77
2022-08-11T08:27:23.074Z,38.35
2022-08-11T08:28:23.084Z,38.15
2022-08-11T08:29:23.086Z,37.28
2022-08-11T08:30:23.085Z,36.41
2022-08-11T08:31:22.828Z,36.02
2022-08-11T08:32:23.082Z,34.09
2022-08-11T08:33:23.083Z,34.19
2022-08-11T08:34:23.078Z,35.83
2022-08-11T08:35:22.952Z,34.75
2022-08-11T08:36:22.831Z,35.52
2022-08-11T08:37:49.269Z,35.13
2022-08-11T08:38:23.097Z,34.65
2022-08-11T08:39:23.057Z,34.84
2022-08-11T08:40:23.235Z,35.62
2022-08-11T08:41:23.085Z,35.33
2022-08-11T08:42:23.091Z,34.86
2022-08-11T08:43:22.848Z,36.8
2022-08-11T08:44:41.322Z,36.9
2022-08-11T08:45:23.087Z,38.83
2022-08-11T08:46:23.090Z,38.35
2022-08-11T08:47:46.985Z,36.32
2022-08-11T08:48:22.831Z,35.25
2022-08-11T08:49:22.828Z,35.25
2022-08-11T08:50:29.777Z,33.99
2022-08-11T08:51:24.495Z,34.67
2022-08-11T08:52:46.513Z,34.09
2022-08-11T08:53:56.228Z,34.38
2022-08-11T08:54:42.722Z,34.47
2022-08-11T08:55:47.857Z,35.23
2022-08-11T08:56:42.465Z,34.67
2022-08-11T08:57:43.036Z,34.38
2022-08-11T08:58:42.464Z,33.78
2022-08-11T08:59:51.788Z,34.75
2022-08-11T09:00:42.724Z,35.23
2022-08-11T09:01:42.865Z,35.42
2022-08-11T09:02:42.716Z,35.33
2022-08-11T09:04:12.195Z,34.38
2022-08-11T09:04:42.725Z,33.87
2022-08-11T09:05:42.722Z,33.89
2022-08-11T09:06:42.797Z,34.28
2022-08-11T09:07:43.652Z,34.96
2022-08-11T09:08:42.728Z,34.57
2022-08-11T09:09:42.727Z,34.3
2022-08-11T09:10:42.735Z,34.11
2022-08-11T09:11:42.724Z,34.59
2022-08-11T09:12:42.837Z,34.11
2022-08-11T09:13:42.719Z,34.8
2022-08-11T09:14:42.725Z,34.89
2022-08-11T09:15:42.483Z,34.31
2022-08-11T09:16:42.477Z,37.61
2022-08-11T09:17:43.010Z,36.35
2022-08-11T09:18:42.463Z,34.23
2022-08-11T09:19:44.805Z,32.67
2022-08-11T09:20:42.465Z,32.47
2022-08-11T09:21:51.967Z,32.57
2022-08-11T09:22:42.797Z,32.37
2022-08-11T09:24:19.308Z,32.47
2022-08-11T09:24:42.464Z,32.47
2022-08-11T09:25:42.741Z,33.25
2022-08-11T09:26:42.467Z,33.54
2022-08-11T09:27:52.663Z,32.09
2022-08-11T09:28:42.723Z,32.1
2022-08-11T09:29:42.468Z,33.26
2022-08-11T09:30:42.467Z,33.26
2022-08-11T09:31:42.823Z,32.78
2022-08-11T09:32:42.722Z,32.39
2022-08-11T09:33:45.128Z,31.52
2022-08-11T09:34:42.723Z,30.74
2022-08-11T09:35:42.470Z,30.74
2022-08-11T09:36:42.728Z,32.18
2022-08-11T09:37:58.801Z,31.7
2022-08-11T09:38:45.008Z,31.79
2022-08-11T09:39:43.747Z,32.26
2022-08-11T09:40:46.879Z,32.36
2022-08-11T09:42:04.245Z,32.46
2022-08-11T09:42:43.273Z,33.52
2022-08-11T09:43:43.540Z,33.52
2022-08-11T09:44:43.531Z,33.44
2022-08-11T09:45:43.276Z,34.02
2022-08-11T09:46:43.273Z,34.41
2022-08-11T09:47:43.535Z,34.72
2022-08-11T09:48:43.274Z,33.56
2022-08-11T09:49:43.278Z,32.02
2022-08-11T09:50:43.276Z,31.91
2022-08-11T09:51:45.685Z,31.71
2022-08-11T09:53:35.418Z,32.29
2022-08-11T09:54:07.812Z,34.62
2022-08-11T09:55:07.555Z,33.84
2022-08-11T09:56:07.554Z,34.72
2022-08-11T09:57:08.052Z,33.75
2022-08-11T09:58:07.815Z,32.99
2022-08-11T09:59:07.558Z,33.57
2022-08-11T10:00:15.571Z,33.47
2022-08-11T10:01:07.757Z,33.86
2022-08-11T10:02:07.817Z,31.63
2022-08-11T10:03:07.563Z,30.85
2022-08-11T10:04:07.819Z,31.44
2022-08-11T10:05:07.818Z,31.44
2022-08-11T10:06:10.585Z,30.66
2022-08-11T10:07:07.820Z,30.57
2022-08-11T10:08:07.563Z,31.71
2022-08-11T10:09:07.563Z,31.63
2022-08-11T10:10:07.562Z,30.37
2022-08-11T10:11:07.564Z,30.55
2022-08-11T10:12:07.821Z,31.52
2022-08-11T10:14:32.410Z,31.52
2022-08-11T10:14:51.206Z,30.84
2022-08-11T10:16:17.177Z,30.74
2022-08-11T10:16:51.203Z,31.81
2022-08-11T10:17:50.950Z,32.1
2022-08-11T10:18:50.951Z,31.32
2022-08-11T10:20:07.682Z,30.26
2022-08-11T10:20:51.248Z,30.26
2022-08-11T10:21:51.211Z,30.94
2022-08-11T10:22:50.954Z,31.71
2022-08-11T10:24:07.631Z,31.32
2022-08-11T10:24:50.951Z,32.02
2022-08-11T10:25:51.213Z,31.53
2022-08-11T10:26:51.210Z,31.15
2022-08-11T10:28:44.601Z,31.53
2022-08-11T10:29:21.755Z,30.47
2022-08-11T10:30:21.411Z,30.18
2022-08-11T10:31:21.148Z,30.57
2022-08-11T10:32:21.188Z,30.57
2022-08-11T10:33:44.194Z,31.34
2022-08-11T10:34:24.900Z,32.5
2022-08-11T10:35:21.407Z,32.6
2022-08-11T10:36:21.419Z,32.5
2022-08-11T10:37:22.112Z,31.84
2022-08-11T10:38:22.112Z,31.55
2022-08-11T10:39:22.038Z,30.77
2022-08-11T10:40:21.877Z,31.16
2022-08-11T10:41:21.867Z,30.77
2022-08-11T10:42:56.997Z,29.9
2022-08-11T10:44:05.340Z,30.48
2022-08-11T10:44:22.122Z,30.68
2022-08-11T10:45:22.125Z,30.68
2022-08-11T10:46:32.070Z,30.68
2022-08-11T10:47:21.869Z,31.84
2022-08-11T10:48:22.123Z,31.55
2022-08-11T10:49:22.131Z,30.48
2022-08-11T10:50:22.136Z,30.58
2022-08-11T10:51:54.108Z,31.35
2022-08-11T10:52:21.873Z,31.35
2022-08-11T10:53:22.131Z,30.48
2022-08-11T10:54:22.132Z,30.77
2022-08-11T10:55:22.131Z,30.5
2022-08-11T10:56:22.132Z,30.3
2022-08-11T10:57:22.145Z,30.21
2022-08-11T10:58:22.134Z,30.11
2022-08-11T10:59:21.880Z,29.62
2022-08-11T11:00:22.140Z,29.72
2022-08-11T11:01:22.001Z,30.48
2022-08-11T11:02:22.140Z,30.77
2022-08-11T11:03:26.026Z,30.58
2022-08-11T11:04:22.138Z,30.68
2022-08-11T11:05:21.885Z,30.29
2022-08-11T11:06:31.504Z,30.29
2022-08-11T11:07:22.149Z,30.27
2022-08-11T11:08:21.890Z,30.47
2022-08-11T11:09:21.891Z,30.58
2022-08-11T11:10:21.892Z,30.47
2022-08-11T11:11:21.895Z,29.5
2022-08-11T11:12:22.156Z,30.08
2022-08-11T11:13:22.150Z,30.47
2022-08-11T11:14:22.150Z,31.44
2022-08-11T11:15:22.158Z,30.47
2022-08-11T11:16:21.895Z,30.66
2022-08-11T11:17:22.159Z,31.04
2022-08-11T11:18:22.153Z,31.23
2022-08-11T11:19:21.903Z,31.42
2022-08-11T11:20:43.794Z,31.91
2022-08-11T11:21:21.930Z,32
2022-08-11T11:22:21.900Z,31.62
2022-08-11T11:23:21.903Z,31.52
2022-08-11T11:24:22.168Z,31.42
2022-08-11T11:25:21.907Z,31.73
2022-08-11T11:26:29.715Z,31.63
2022-08-11T11:27:22.164Z,31.34
2022-08-11T11:28:22.160Z,31.63
2022-08-11T11:29:22.165Z,32.2
2022-08-11T11:30:22.163Z,32.39
2022-08-11T11:31:21.908Z,32.96
2022-08-11T11:32:22.164Z,32.57
2022-08-11T11:33:22.169Z,33.07
2022-08-11T11:34:22.218Z,32.68
2022-08-11T11:35:23.459Z,32.1
2022-08-11T11:36:21.913Z,31.52
2022-08-11T11:37:22.164Z,31.71
2022-08-11T11:38:21.912Z,32.49
2022-08-11T11:39:22.278Z,32
2022-08-11T11:40:22.174Z,32
2022-08-11T11:41:22.179Z,31.62
2022-08-11T11:42:22.176Z,31.04
2022-08-11T11:43:21.916Z,30.84
2022-08-11T11:44:22.183Z,31.62
2022-08-11T11:45:26.448Z,32
2022-08-11T11:46:24.106Z,31.52
2022-08-11T11:47:24.340Z,31.32
2022-08-11T11:48:22.174Z,31.15
2022-08-11T11:50:22.178Z,31.91
2022-08-11T11:51:21.922Z,31.91
2022-08-11T11:52:22.197Z,31.13
2022-08-11T11:53:22.179Z,30.65
2022-08-11T11:54:22.179Z,31.32
2022-08-11T11:56:22.180Z,32.59
2022-08-11T11:57:21.925Z,32.49
2022-08-11T11:58:24.235Z,32.99
2022-08-11T11:59:22.181Z,32.6
2022-08-11T12:00:22.186Z,32.5
2022-08-11T12:01:21.925Z,32.12
2022-08-11T12:02:22.198Z,31.35
2022-08-11T12:03:22.127Z,30.58
2022-08-11T12:04:22.187Z,30.29
2022-08-11T12:05:21.932Z,30.29
2022-08-11T12:06:22.192Z,30.57
2022-08-11T12:07:22.193Z,30.95
2022-08-11T12:08:27.751Z,30.27
2022-08-11T12:09:24.834Z,30.48
2022-08-11T12:10:21.939Z,30.38
2022-08-11T12:11:21.960Z,29.11
2022-08-11T12:12:22.193Z,28.93
2022-08-11T12:13:22.197Z,29.5
2022-08-11T12:14:22.195Z,30.08
2022-08-11T12:16:32.422Z,29.4
2022-08-11T12:16:43.803Z,29.5
2022-08-11T12:17:44.106Z,30.18
2022-08-11T12:18:43.803Z,29.5
2022-08-11T12:19:50.640Z,29.21
2022-08-11T12:20:44.066Z,30.08
2022-08-11T12:21:53.881Z,29.98
2022-08-11T12:22:43.809Z,30.35
2022-08-11T12:23:43.812Z,30.35
2022-08-11T12:24:43.958Z,30.45
2022-08-11T12:25:43.825Z,30.66
2022-08-11T12:26:43.818Z,30.57
2022-08-11T12:27:44.023Z,30.08
2022-08-11T12:28:43.819Z,30.16
2022-08-11T12:29:47.424Z,30.07
2022-08-11T12:30:44.099Z,29.88
2022-08-11T12:31:43.826Z,29.88
2022-08-11T12:32:44.359Z,30.57
2022-08-11T12:33:43.822Z,31.63
2022-08-11T12:34:44.080Z,31.44
2022-08-11T12:36:02.613Z,31.73
2022-08-11T12:36:44.090Z,31.24
2022-08-11T12:37:44.480Z,30.27
2022-08-11T12:38:43.825Z,30.57
2022-08-11T12:40:37.652Z,30.57
2022-08-11T12:41:25.948Z,30.47
2022-08-11T12:42:29.212Z,30.08
2022-08-11T12:43:37.457Z,29.11
2022-08-11T12:44:27.726Z,29.11
2022-08-11T12:45:26.006Z,29.4
2022-08-11T12:46:26.015Z,29.4
2022-08-11T12:47:26.008Z,30.18
2022-08-11T12:49:03.211Z,29.5
2022-08-11T12:49:25.757Z,29.6
2022-08-11T12:50:26.174Z,29.5
2022-08-11T12:51:26.128Z,29.3
2022-08-11T12:52:26.022Z,29.21
2022-08-11T12:53:26.187Z,28.63
2022-08-11T12:54:26.020Z,29.3
2022-08-11T12:55:25.761Z,29.4
2022-08-11T12:56:25.765Z,28.63
2022-08-11T12:57:38.896Z,29.48
2022-08-11T12:58:26.025Z,29.38
2022-08-11T12:59:26.021Z,29.28
2022-08-11T13:00:26.062Z,29.28
2022-08-11T13:01:26.251Z,29.48
2022-08-11T13:02:30.501Z,29.38
2022-08-11T13:03:25.771Z,30.07
2022-08-11T13:04:25.779Z,29.87
2022-08-11T13:05:25.774Z,29.48
2022-08-11T13:06:25.775Z,29.97
2022-08-11T13:07:25.775Z,30.08
2022-08-11T13:08:26.057Z,28.72
2022-08-11T13:09:26.032Z,29.4
2022-08-11T13:10:25.835Z,29.6
2022-08-11T13:11:54.819Z,30.27
2022-08-11T13:12:26.039Z,30.47
2022-08-11T13:13:58.814Z,29.79
2022-08-11T13:14:26.043Z,29.6
2022-08-11T13:15:26.040Z,29.4
2022-08-11T13:16:26.060Z,29.3
2022-08-11T13:17:46.482Z,29.58
2022-08-11T13:18:25.794Z,29.01
2022-08-11T13:19:25.788Z,29.11
2022-08-11T13:20:25.788Z,28.72
2022-08-11T13:21:26.053Z,29.11